Port Moresby Jacksons International Airport

METAR AYPY TAF AYPY
29 °C
°C
-
°C
27m
Âge
09:27:14
LT
08:27
UTC
0 ft

1.000

2.000

3.000

4.000

5.000

SCT 3.000
VFR
<?= Yii::t('app', 'Wind direction') ?> <?= Yii::t('app', 'of'); ?>
300°
18:39
Coucher de soleil
74%
Humidité
Cisaillement du vent
Fermé/neige
Portée visuelle RWY
Condition RWY
Visibilité vert.
Visibilité min.
CAVOK
Tendance
Correction
Rapport spécial
1004 hPa
QNH
METAR AYPY 020800Z 30008KT 9999 SCT030 29/24 Q1004
épars
4 kt
4 kt
18:00
IFR
10 kt
19:00
IFR
10 kt
20:00
VFR
10 kt
21:00
VFR
10 kt
22:00
VFR
5 kt
23:00
VFR
5 kt
00:00
VFR
5 kt
10 km+
Vue
Non
Base cloud
8 kt
Vent
metar-taf.com/AYPY

Metar-Taf.com

Décodeur visuel

Nous et des tiers suivons ton comportement Internet sur notre site Web à l'aide de cookies. Si tu continues, nous supposons que tu es d'accord avec notre Politique en matière de cookies.